SFR452 FALE-FAOR
Flight info
| Callsign | SFR452 |
|---|---|
| Flight time | N/A |
| Altitude | 32000 |
| Route | GEPOM UZ29 UNPOM UNPOM1A |
| Aircraft | B738/M-SDE2E3FGHIRWXY/LB1 |
Departure
| Time | 2026-04-29 16:22 |
|---|---|
| Airport | King Shaka International Airport (FALE) |
Arrival
| Time | N/A |
|---|---|
| Airport | O.R. Tambo International Airport (FAOR) |
| Time | Latitude | Longitude | Altitude | Speed | Heading |
|---|---|---|---|---|---|
| 2026-04-29 15:55 | -29.61938 | 31.10607 | 297 ft | 0 kts | 308° |
| 2026-04-29 16:15 | -29.61949 | 31.10622 | 298 ft | 4 kts | 308° |
| 2026-04-29 16:15 | -29.61961 | 31.10647 | 298 ft | 4 kts | 272° |
| 2026-04-29 16:16 | -29.61954 | 31.10674 | 299 ft | 4 kts | 224° |
| 2026-04-29 16:16 | -29.61945 | 31.10683 | 300 ft | 1 kts | 217° |
| 2026-04-29 16:16 | -29.61944 | 31.10684 | 300 ft | 0 kts | 217° |
| 2026-04-29 16:19 | -29.61947 | 31.10681 | 300 ft | 2 kts | 216° |
| 2026-04-29 16:19 | -29.61984 | 31.10650 | 300 ft | 11 kts | 217° |
| 2026-04-29 16:19 | -29.62071 | 31.10573 | 296 ft | 20 kts | 217° |
| 2026-04-29 16:19 | -29.62199 | 31.10461 | 296 ft | 24 kts | 218° |
| 2026-04-29 16:20 | -29.62274 | 31.10448 | 295 ft | 8 kts | 120° |
| 2026-04-29 16:20 | -29.62315 | 31.10511 | 298 ft | 11 kts | 127° |
| 2026-04-29 16:20 | -29.62368 | 31.10592 | 295 ft | 14 kts | 127° |
| 2026-04-29 16:20 | -29.62434 | 31.10693 | 297 ft | 17 kts | 129° |
| 2026-04-29 16:21 | -29.62469 | 31.10816 | 296 ft | 13 kts | 51° |
| 2026-04-29 16:21 | -29.62395 | 31.10877 | 296 ft | 14 kts | 37° |
| 2026-04-29 16:21 | -29.62227 | 31.11027 | 296 ft | 71 kts | 38° |
| 2026-04-29 16:21 | -29.61575 | 31.11590 | 300 ft | 160 kts | 37° |
| 2026-04-29 16:22 | -29.60554 | 31.12477 | 843 ft | 200 kts | 37° |
| 2026-04-29 16:22 | -29.59420 | 31.13512 | 1914 ft | 213 kts | 39° |
| 2026-04-29 16:22 | -29.58234 | 31.14560 | 3004 ft | 216 kts | 39° |
| 2026-04-29 16:22 | -29.57019 | 31.15604 | 4080 ft | 220 kts | 32° |
| 2026-04-29 16:23 | -29.55552 | 31.16069 | 5112 ft | 223 kts | 355° |
| 2026-04-29 16:23 | -29.54113 | 31.15472 | 6131 ft | 224 kts | 321° |
| 2026-04-29 16:23 | -29.52984 | 31.14214 | 7178 ft | 227 kts | 310° |
| 2026-04-29 16:23 | -29.51958 | 31.12830 | 8269 ft | 228 kts | 308° |
| 2026-04-29 16:24 | -29.50964 | 31.11448 | 9401 ft | 226 kts | 308° |
| 2026-04-29 16:24 | -29.49970 | 31.10065 | 10532 ft | 223 kts | 307° |
| 2026-04-29 16:24 | -29.48992 | 31.08714 | 11577 ft | 218 kts | 306° |
| 2026-04-29 16:24 | -29.48029 | 31.07392 | 12629 ft | 213 kts | 304° |
| 2026-04-29 16:25 | -29.47092 | 31.06110 | 13643 ft | 207 kts | 303° |
| 2026-04-29 16:25 | -29.46177 | 31.04864 | 14572 ft | 201 kts | 301° |
| 2026-04-29 16:25 | -29.45289 | 31.03655 | 15402 ft | 196 kts | 301° |
| 2026-04-29 16:25 | -29.44398 | 31.02438 | 15911 ft | 203 kts | 301° |
| 2026-04-29 16:26 | -29.43456 | 31.01146 | 16229 ft | 219 kts | 301° |
| 2026-04-29 16:26 | -29.42439 | 30.99755 | 16573 ft | 236 kts | 301° |
| 2026-04-29 16:26 | -29.41345 | 30.98261 | 16887 ft | 253 kts | 302° |
| 2026-04-29 16:26 | -29.40171 | 30.96664 | 17224 ft | 270 kts | 302° |
| 2026-04-29 16:27 | -29.38922 | 30.94971 | 17550 ft | 286 kts | 303° |
| 2026-04-29 16:27 | -29.37601 | 30.93185 | 17870 ft | 302 kts | 303° |
| 2026-04-29 16:27 | -29.36202 | 30.91299 | 18210 ft | 316 kts | 303° |
| 2026-04-29 16:27 | -29.34750 | 30.89343 | 18541 ft | 329 kts | 303° |
| 2026-04-29 16:28 | -29.33236 | 30.87307 | 18854 ft | 342 kts | 304° |
| 2026-04-29 16:28 | -29.31666 | 30.85195 | 19115 ft | 353 kts | 304° |
| 2026-04-29 16:28 | -29.30078 | 30.83062 | 19393 ft | 360 kts | 304° |
| 2026-04-29 16:28 | -29.28442 | 30.80867 | 19677 ft | 363 kts | 304° |
| 2026-04-29 16:29 | -29.26806 | 30.78672 | 19949 ft | 362 kts | 304° |
| 2026-04-29 16:29 | -29.25174 | 30.76479 | 20233 ft | 362 kts | 304° |
| 2026-04-29 16:29 | -29.23570 | 30.74324 | 20507 ft | 362 kts | 304° |
| 2026-04-29 16:29 | -29.21995 | 30.72140 | 20794 ft | 361 kts | 303° |
| 2026-04-29 16:30 | -29.20390 | 30.69851 | 21086 ft | 360 kts | 303° |
| 2026-04-29 16:30 | -29.18828 | 30.67609 | 21388 ft | 363 kts | 303° |
| 2026-04-29 16:30 | -29.17281 | 30.65391 | 21687 ft | 370 kts | 303° |
| 2026-04-29 16:30 | -29.16079 | 30.63675 | 21902 ft | 375 kts | 303° |
| 2026-04-29 16:31 | -29.14421 | 30.61317 | 22215 ft | 381 kts | 303° |
| 2026-04-29 16:31 | -29.12754 | 30.58952 | 22519 ft | 386 kts | 303° |
| 2026-04-29 16:31 | -29.11008 | 30.56711 | 22792 ft | 395 kts | 310° |
| 2026-04-29 16:31 | -29.08803 | 30.54657 | 23102 ft | 407 kts | 320° |
| 2026-04-29 16:32 | -29.06332 | 30.53010 | 23457 ft | 413 kts | 324° |
| 2026-04-29 16:32 | -29.03810 | 30.51427 | 23787 ft | 414 kts | 323° |
| 2026-04-29 16:32 | -29.01340 | 30.49827 | 24608 ft | 399 kts | 322° |
| 2026-04-29 16:32 | -28.98993 | 30.48236 | 25536 ft | 385 kts | 320° |
| 2026-04-29 16:33 | -28.94583 | 30.45075 | 27290 ft | 363 kts | 317° |
| 2026-04-29 16:33 | -28.92494 | 30.43527 | 28133 ft | 354 kts | 317° |
| 2026-04-29 16:33 | -28.90543 | 30.42069 | 28884 ft | 348 kts | 316° |
| 2026-04-29 16:34 | -28.88475 | 30.40516 | 29653 ft | 341 kts | 316° |
| 2026-04-29 16:34 | -28.86507 | 30.39035 | 30379 ft | 336 kts | 315° |
| 2026-04-29 16:34 | -28.84566 | 30.37574 | 30955 ft | 331 kts | 315° |
| 2026-04-29 16:34 | -28.82653 | 30.36133 | 31496 ft | 328 kts | 315° |
| 2026-04-29 16:35 | -28.80763 | 30.34711 | 32011 ft | 324 kts | 315° |
| 2026-04-29 16:35 | -28.78882 | 30.33293 | 32294 ft | 328 kts | 315° |
| 2026-04-29 16:35 | -28.76934 | 30.31813 | 32252 ft | 340 kts | 315° |
| 2026-04-29 16:35 | -28.74957 | 30.30316 | 32276 ft | 349 kts | 315° |
| 2026-04-29 16:36 | -28.70803 | 30.27187 | 32290 ft | 367 kts | 316° |
| 2026-04-29 16:36 | -28.66444 | 30.23921 | 32292 ft | 387 kts | 316° |
| 2026-04-29 16:37 | -28.61905 | 30.20527 | 32288 ft | 400 kts | 317° |
| 2026-04-29 16:37 | -28.58042 | 30.17645 | 32287 ft | 409 kts | 317° |
| 2026-04-29 16:38 | -28.52406 | 30.13447 | 32285 ft | 416 kts | 317° |
| 2026-04-29 16:38 | -28.47548 | 30.09836 | 32283 ft | 416 kts | 317° |
| 2026-04-29 16:39 | -28.42711 | 30.06239 | 32289 ft | 414 kts | 317° |
| 2026-04-29 16:39 | -28.37928 | 30.02683 | 32292 ft | 413 kts | 317° |
| 2026-04-29 16:40 | -28.33130 | 29.99116 | 32287 ft | 413 kts | 317° |
| 2026-04-29 16:40 | -28.28416 | 29.95616 | 32277 ft | 413 kts | 317° |
| 2026-04-29 16:41 | -28.23583 | 29.92033 | 32288 ft | 413 kts | 317° |
| 2026-04-29 16:41 | -28.18772 | 29.88468 | 32282 ft | 414 kts | 317° |
| 2026-04-29 16:42 | -28.13907 | 29.84867 | 32282 ft | 416 kts | 317° |
| 2026-04-29 16:42 | -28.09055 | 29.81281 | 32280 ft | 417 kts | 317° |
| 2026-04-29 16:43 | -28.04221 | 29.77712 | 32276 ft | 417 kts | 318° |
| 2026-04-29 16:43 | -27.99367 | 29.74133 | 32296 ft | 417 kts | 318° |
| 2026-04-29 16:44 | -27.94515 | 29.70558 | 32304 ft | 417 kts | 318° |
| 2026-04-29 16:44 | -27.89623 | 29.66958 | 32307 ft | 417 kts | 318° |
| 2026-04-29 16:45 | -27.84733 | 29.63361 | 32302 ft | 420 kts | 318° |
| 2026-04-29 16:45 | -27.80647 | 29.60363 | 32310 ft | 421 kts | 318° |
| 2026-04-29 16:46 | -27.75713 | 29.56755 | 32307 ft | 422 kts | 318° |
| 2026-04-29 16:46 | -27.70773 | 29.53149 | 32294 ft | 424 kts | 318° |
| 2026-04-29 16:47 | -27.65980 | 29.49652 | 32294 ft | 424 kts | 319° |
| 2026-04-29 16:47 | -27.61126 | 29.46113 | 32297 ft | 424 kts | 319° |
| 2026-04-29 16:48 | -27.56164 | 29.42499 | 32271 ft | 423 kts | 320° |
| 2026-04-29 16:48 | -27.51250 | 29.38925 | 32298 ft | 423 kts | 320° |
| 2026-04-29 16:49 | -27.46288 | 29.35318 | 32292 ft | 424 kts | 320° |
| 2026-04-29 16:49 | -27.41359 | 29.31739 | 32289 ft | 424 kts | 320° |
| 2026-04-29 16:50 | -27.36394 | 29.28138 | 32284 ft | 424 kts | 320° |
| 2026-04-29 16:50 | -27.31429 | 29.24541 | 32284 ft | 424 kts | 320° |
| 2026-04-29 16:51 | -27.26460 | 29.20944 | 32289 ft | 425 kts | 321° |
| 2026-04-29 16:51 | -27.21492 | 29.17352 | 32286 ft | 425 kts | 321° |
| 2026-04-29 16:52 | -27.16359 | 29.14003 | 32288 ft | 428 kts | 325° |
| 2026-04-29 16:52 | -27.11044 | 29.10913 | 31683 ft | 436 kts | 326° |
| 2026-04-29 16:53 | -27.08401 | 29.09383 | 31042 ft | 434 kts | 326° |
| 2026-04-29 16:53 | -27.05732 | 29.07834 | 30389 ft | 431 kts | 327° |
| 2026-04-29 16:53 | -27.03072 | 29.06282 | 29651 ft | 431 kts | 327° |
| 2026-04-29 16:53 | -27.00411 | 29.04720 | 28913 ft | 431 kts | 327° |
| 2026-04-29 16:54 | -26.97748 | 29.03154 | 28200 ft | 434 kts | 327° |
| 2026-04-29 16:54 | -26.95059 | 29.01570 | 27506 ft | 440 kts | 327° |
| 2026-04-29 16:54 | -26.92326 | 28.99960 | 26834 ft | 445 kts | 327° |
| 2026-04-29 16:54 | -26.89585 | 28.98350 | 26167 ft | 446 kts | 327° |
| 2026-04-29 16:55 | -26.86832 | 28.96735 | 25522 ft | 447 kts | 327° |
| 2026-04-29 16:55 | -26.84079 | 28.95122 | 24885 ft | 445 kts | 328° |
| 2026-04-29 16:55 | -26.81361 | 28.93531 | 24264 ft | 437 kts | 328° |
| 2026-04-29 16:55 | -26.78718 | 28.91983 | 23607 ft | 431 kts | 328° |
| 2026-04-29 16:56 | -26.76085 | 28.90442 | 22837 ft | 422 kts | 328° |
| 2026-04-29 16:56 | -26.73507 | 28.88933 | 21861 ft | 417 kts | 328° |
| 2026-04-29 16:56 | -26.71138 | 28.87132 | 20787 ft | 408 kts | 314° |
| 2026-04-29 16:56 | -26.69294 | 28.84774 | 19923 ft | 399 kts | 302° |
| 2026-04-29 16:57 | -26.68011 | 28.82043 | 18985 ft | 395 kts | 291° |
| 2026-04-29 16:57 | -26.67053 | 28.79190 | 18062 ft | 391 kts | 289° |
| 2026-04-29 16:57 | -26.66127 | 28.76339 | 17038 ft | 390 kts | 289° |
| 2026-04-29 16:57 | -26.65197 | 28.73498 | 16065 ft | 388 kts | 289° |
| 2026-04-29 16:58 | -26.64379 | 28.71042 | 15234 ft | 388 kts | 288° |
| 2026-04-29 16:58 | -26.63426 | 28.68223 | 14307 ft | 387 kts | 288° |
| 2026-04-29 16:58 | -26.62470 | 28.65415 | 13311 ft | 386 kts | 288° |
| 2026-04-29 16:58 | -26.61515 | 28.62613 | 12394 ft | 382 kts | 289° |
| 2026-04-29 16:59 | -26.60609 | 28.59950 | 12119 ft | 375 kts | 289° |
| 2026-04-29 16:59 | -26.59770 | 28.57478 | 11710 ft | 378 kts | 289° |
| 2026-04-29 16:59 | -26.58821 | 28.54684 | 11348 ft | 378 kts | 290° |
| 2026-04-29 16:59 | -26.57904 | 28.51980 | 10967 ft | 376 kts | 290° |
| 2026-04-29 17:00 | -26.56977 | 28.49255 | 10575 ft | 375 kts | 290° |
| 2026-04-29 17:00 | -26.56060 | 28.46561 | 10220 ft | 374 kts | 290° |
| 2026-04-29 17:00 | -26.55130 | 28.43832 | 9812 ft | 374 kts | 291° |
| 2026-04-29 17:00 | -26.54256 | 28.41096 | 9383 ft | 373 kts | 284° |
| 2026-04-29 17:01 | -26.54092 | 28.38364 | 8900 ft | 371 kts | 263° |
| 2026-04-29 17:01 | -26.54813 | 28.35649 | 8581 ft | 368 kts | 244° |
| 2026-04-29 17:01 | -26.56305 | 28.33328 | 8329 ft | 369 kts | 225° |
| 2026-04-29 17:01 | -26.57185 | 28.32469 | 8378 ft | 369 kts | 219° |